Time;durP1;ratioP1;P1;durP2;ratioP2;P2;SDS_P1;SDS_P2;PMS_P1;PMS_P2;Temp;Humidity;BMP_temperature;BMP_pressure;BME280_temperature;BME280_humidity;BME280_pressure;Samples;Min_cycle;Max_cycle;Signal;HPM_P1;HPM_P2
2020/12/24 00:01:20;;;;;;;1.63;1.30;;;11.30;82.30;;;;;;5033115;28;20121;-35
2020/12/24 00:03:45;;;;;;;2.47;1.30;;;11.30;82.30;;;;;;5033484;28;20502;-37
2020/12/24 00:06:11;;;;;;;1.25;1.15;;;11.30;82.30;;;;;;5036037;28;20045;-38
2020/12/24 00:08:37;;;;;;;3.20;1.40;;;11.30;82.30;;;;;;5036078;28;20405;-38
2020/12/24 00:11:04;;;;;;;2.25;1.35;;;11.30;82.30;;;;;;5035898;28;20052;-37
2020/12/24 00:13:30;;;;;;;2.50;1.20;;;11.30;82.30;;;;;;5026192;28;20151;-38
2020/12/24 00:15:55;;;;;;;1.40;1.08;;;11.30;82.30;;;;;;5031148;28;20509;-38
2020/12/24 00:18:21;;;;;;;1.95;1.15;;;11.30;82.30;;;;;;5030870;28;20077;-37
2020/12/24 00:20:47;;;;;;;2.10;1.45;;;11.30;82.30;;;;;;5029831;28;20359;-39
2020/12/24 00:23:13;;;;;;;1.60;1.30;;;11.40;82.40;;;;;;5026922;28;20046;-38
2020/12/24 00:25:38;;;;;;;2.20;1.27;;;11.30;82.30;;;;;;5028329;28;20442;-38
2020/12/24 00:28:06;;;;;;;1.42;1.17;;;11.30;82.30;;;;;;5029927;28;20494;-38
2020/12/24 00:30:31;;;;;;;2.80;1.20;;;11.30;82.30;;;;;;5031169;28;20049;-36
2020/12/24 00:32:57;;;;;;;1.30;1.20;;;11.30;82.30;;;;;;5031224;28;20120;-37
2020/12/24 00:35:23;;;;;;;1.83;1.08;;;11.30;82.30;;;;;;5028390;28;20041;-37
2020/12/24 00:37:48;;;;;;;1.65;1.17;;;11.30;82.30;;;;;;5030030;28;20490;-37
2020/12/24 00:40:14;;;;;;;4.20;1.15;;;11.30;82.30;;;;;;5029948;28;20072;-37
2020/12/24 00:42:40;;;;;;;1.58;1.20;;;11.30;82.30;;;;;;5031227;28;20069;-36
2020/12/24 00:45:06;;;;;;;2.83;1.40;;;11.30;82.30;;;;;;5021251;28;20050;-38
2020/12/24 00:47:31;;;;;;;2.38;1.02;;;11.30;82.30;;;;;;5031030;28;20140;-38
2020/12/24 00:49:57;;;;;;;2.55;1.40;;;11.30;82.30;;;;;;5031111;28;20041;-39
2020/12/24 00:52:23;;;;;;;1.27;0.98;;;11.30;82.30;;;;;;5028503;28;20103;-38
2020/12/24 00:54:49;;;;;;;2.08;0.90;;;11.30;82.30;;;;;;5027173;28;20042;-36
2020/12/24 00:57:14;;;;;;;0.98;0.70;;;11.30;82.30;;;;;;5029664;28;20091;-38
2020/12/24 00:59:40;;;;;;;1.65;1.02;;;11.30;82.30;;;;;;5028460;28;20049;-38
2020/12/24 01:02:06;;;;;;;1.50;1.10;;;11.30;82.40;;;;;;5029262;28;20116;-38
2020/12/24 01:04:32;;;;;;;2.08;0.95;;;11.30;83.00;;;;;;5031009;28;20132;-37
2020/12/24 01:06:57;;;;;;;1.70;1.13;;;11.30;82.30;;;;;;5029235;28;20046;-39
2020/12/24 01:09:23;;;;;;;1.02;0.90;;;11.30;82.30;;;;;;5029761;28;20046;-39
2020/12/24 01:11:49;;;;;;;1.15;0.90;;;11.30;82.40;;;;;;5010199;28;20053;-39
2020/12/24 01:14:15;;;;;;;2.22;0.90;;;11.30;82.30;;;;;;5030714;28;20449;-38
2020/12/24 01:16:40;;;;;;;1.40;1.27;;;11.30;82.30;;;;;;5024406;28;20121;-38
2020/12/24 01:19:06;;;;;;;1.67;0.80;;;11.30;82.40;;;;;;5026206;28;20058;-38
2020/12/24 01:21:32;;;;;;;1.17;1.00;;;11.30;82.30;;;;;;5026003;28;20478;-39
2020/12/24 01:23:57;;;;;;;1.20;1.02;;;11.30;82.30;;;;;;5030383;28;20068;-39
2020/12/24 01:26:23;;;;;;;1.15;0.88;;;11.30;82.30;;;;;;5029401;28;20080;-38
2020/12/24 01:28:49;;;;;;;1.38;1.00;;;11.30;82.30;;;;;;5024957;28;20049;-39
2020/12/24 01:31:15;;;;;;;2.42;1.13;;;11.30;82.30;;;;;;5030292;28;20050;-39
2020/12/24 01:33:41;;;;;;;1.00;0.80;;;11.30;82.40;;;;;;5027486;28;20057;-38
2020/12/24 01:36:06;;;;;;;1.60;0.73;;;11.30;82.30;;;;;;5028951;28;20509;-38
2020/12/24 01:38:32;;;;;;;1.90;0.80;;;11.30;82.30;;;;;;5028395;28;20119;-38
2020/12/24 01:41:02;;;;;;;1.90;1.17;;;11.30;82.30;;;;;;5029636;28;20420;-38
2020/12/24 01:43:28;;;;;;;1.50;0.82;;;11.30;82.30;;;;;;5028408;28;20049;-38
2020/12/24 01:45:58;;;;;;;1.33;0.80;;;11.30;82.30;;;;;;5029473;28;21312;-37
2020/12/24 01:48:24;;;;;;;1.35;0.73;;;11.30;82.30;;;;;;5028952;28;20053;-38
2020/12/24 01:50:50;;;;;;;1.13;0.70;;;11.30;82.20;;;;;;5030785;28;20121;-39
2020/12/24 01:53:25;;;;;;;1.67;1.13;;;11.30;82.20;;;;;;5030059;28;20505;-37
2020/12/24 01:55:51;;;;;;;0.73;0.73;;;11.30;82.20;;;;;;5030073;28;20057;-38
2020/12/24 01:58:18;;;;;;;2.38;1.00;;;11.20;82.10;;;;;;5029310;28;20405;-38
2020/12/24 02:00:48;;;;;;;1.85;0.90;;;11.30;82.20;;;;;;5025130;28;20045;-38
2020/12/24 02:03:14;;;;;;;2.33;1.05;;;11.20;82.10;;;;;;5023204;28;20041;-38
2020/12/24 02:05:41;;;;;;;0.80;0.80;;;11.20;82.10;;;;;;5027026;28;20037;-38
2020/12/24 02:08:07;;;;;;;0.93;0.70;;;11.20;82.10;;;;;;5029741;28;20057;-37
2020/12/24 02:10:33;;;;;;;1.25;0.60;;;11.30;82.10;;;;;;5026520;28;20052;-37
2020/12/24 02:12:59;;;;;;;0.80;0.80;;;11.30;82.10;;;;;;5026410;28;20046;-39
2020/12/24 02:15:25;;;;;;;1.35;0.80;;;11.20;82.00;;;;;;5031553;28;20399;-38
2020/12/24 02:17:50;;;;;;;1.27;1.00;;;11.20;82.00;;;;;;5027990;28;20070;-38
2020/12/24 02:20:16;;;;;;;0.93;0.80;;;11.30;82.00;;;;;;5026825;28;20526;-39
2020/12/24 02:22:42;;;;;;;0.60;0.50;;;11.20;82.00;;;;;;5030721;28;20052;-38
2020/12/24 02:25:08;;;;;;;1.58;1.00;;;11.20;82.00;;;;;;5028120;28;20045;-39
2020/12/24 02:27:33;;;;;;;0.77;0.70;;;11.20;82.00;;;;;;5029448;28;20056;-38
2020/12/24 02:30:01;;;;;;;3.30;0.80;;;11.20;82.00;;;;;;5029505;28;20048;-39
2020/12/24 02:32:28;;;;;;;0.80;0.75;;;11.20;82.00;;;;;;5025031;28;20124;-38
2020/12/24 02:34:55;;;;;;;1.95;1.00;;;11.30;82.00;;;;;;5027123;28;20060;-39
2020/12/24 02:37:24;;;;;;;0.85;0.70;;;11.20;82.00;;;;;;5027912;28;20046;-39
2020/12/24 02:39:51;;;;;;;1.30;0.80;;;11.30;82.10;;;;;;5029119;28;20144;-38
2020/12/24 02:42:18;;;;;;;2.17;0.75;;;11.20;82.00;;;;;;5028232;28;20042;-38
2020/12/24 02:44:44;;;;;;;1.02;0.70;;;11.20;82.00;;;;;;5026273;28;20050;-38
2020/12/24 02:47:10;;;;;;;1.45;0.80;;;11.20;82.00;;;;;;5027712;28;20056;-39
2020/12/24 02:49:36;;;;;;;1.10;0.90;;;11.20;82.00;;;;;;5028753;28;20116;-38
2020/12/24 02:52:02;;;;;;;1.80;0.82;;;11.20;82.00;;;;;;5028110;28;20045;-36
2020/12/24 02:54:28;;;;;;;1.05;0.80;;;11.20;82.00;;;;;;5030525;28;20056;-39
2020/12/24 02:56:53;;;;;;;1.10;0.85;;;11.20;82.00;;;;;;5028596;28;20050;-36
2020/12/24 02:59:19;;;;;;;1.90;0.77;;;11.20;82.00;;;;;;5027245;28;20046;-37
2020/12/24 03:01:45;;;;;;;1.15;0.70;;;11.20;82.10;;;;;;5028557;28;20140;-38
2020/12/24 03:04:10;;;;;;;0.60;0.55;;;11.20;82.00;;;;;;5022092;28;20046;-38
2020/12/24 03:06:36;;;;;;;0.95;0.90;;;11.20;82.00;;;;;;5028587;28;20106;-38
2020/12/24 03:09:02;;;;;;;2.22;0.77;;;11.20;82.00;;;;;;5028862;28;20094;-39
2020/12/24 03:11:28;;;;;;;0.70;0.68;;;11.20;82.00;;;;;;5026755;28;20049;-38
2020/12/24 03:13:54;;;;;;;0.93;0.70;;;11.20;82.00;;;;;;5029202;28;20045;-38
2020/12/24 03:16:19;;;;;;;0.60;0.60;;;11.20;82.00;;;;;;5029211;28;20048;-38
2020/12/24 03:18:45;;;;;;;0.63;0.63;;;11.20;82.00;;;;;;5026640;28;20497;-38
2020/12/24 03:21:11;;;;;;;0.95;0.60;;;11.20;82.10;;;;;;5027200;28;20041;-38
2020/12/24 03:23:36;;;;;;;0.98;0.60;;;11.20;82.10;;;;;;5028397;28;20383;-38
2020/12/24 03:26:02;;;;;;;1.23;0.88;;;11.20;82.10;;;;;;5027235;28;20049;-38
2020/12/24 03:28:28;;;;;;;0.50;0.50;;;11.20;82.20;;;;;;5028169;28;20128;-39
2020/12/24 03:30:53;;;;;;;1.00;0.70;;;11.20;82.20;;;;;;5028541;28;20631;-38
2020/12/24 03:33:19;;;;;;;0.80;0.80;;;11.20;82.20;;;;;;5027489;28;20049;-38
2020/12/24 03:35:45;;;;;;;0.77;0.50;;;11.20;82.20;;;;;;5024285;28;20088;-37
2020/12/24 03:38:10;;;;;;;0.77;0.65;;;11.20;82.20;;;;;;5026414;28;20085;-39
2020/12/24 03:40:36;;;;;;;1.30;0.70;;;11.20;82.20;;;;;;5028414;28;20103;-39
2020/12/24 03:43:02;;;;;;;1.50;0.75;;;11.20;82.30;;;;;;5027991;28;20102;-37
2020/12/24 03:45:27;;;;;;;1.27;0.90;;;11.20;82.20;;;;;;5026754;28;20084;-38
2020/12/24 03:47:53;;;;;;;0.90;0.50;;;11.20;82.20;;;;;;5029526;28;20041;-38
2020/12/24 03:50:19;;;;;;;1.15;0.80;;;11.20;82.20;;;;;;5026776;28;20125;-37
2020/12/24 03:52:45;;;;;;;0.77;0.75;;;11.20;82.30;;;;;;5027996;28;20087;-38
2020/12/24 03:55:10;;;;;;;1.20;0.82;;;11.20;82.20;;;;;;5028308;28;20041;-38
2020/12/24 03:57:36;;;;;;;0.85;0.68;;;11.20;82.20;;;;;;5020261;28;20107;-38
2020/12/24 04:00:04;;;;;;;0.65;0.60;;;11.20;82.90;;;;;;5023169;28;20045;-38
2020/12/24 04:02:30;;;;;;;0.70;0.70;;;11.20;82.20;;;;;;5017669;28;20049;-38
2020/12/24 04:04:55;;;;;;;1.33;0.63;;;11.20;82.20;;;;;;5027146;28;20144;-38
2020/12/24 04:07:21;;;;;;;1.75;1.17;;;11.20;82.20;;;;;;5026593;28;20100;-38
2020/12/24 04:09:47;;;;;;;1.60;0.57;;;11.20;82.20;;;;;;5027796;28;20104;-39
2020/12/24 04:12:12;;;;;;;0.73;0.70;;;11.20;82.20;;;;;;5028216;28;20033;-39
2020/12/24 04:14:39;;;;;;;0.40;0.40;;;11.20;82.30;;;;;;5024991;28;20045;-38
2020/12/24 04:17:04;;;;;;;1.20;0.60;;;11.20;82.20;;;;;;5025972;28;20037;-38
2020/12/24 04:19:30;;;;;;;0.57;0.57;;;11.20;82.20;;;;;;5029784;28;20068;-38
2020/12/24 04:21:56;;;;;;;1.35;0.60;;;11.20;82.20;;;;;;5026747;28;20272;-39
2020/12/24 04:24:21;;;;;;;0.93;0.80;;;11.20;82.20;;;;;;5026649;28;20054;-38
2020/12/24 04:26:47;;;;;;;0.80;0.65;;;11.20;82.20;;;;;;5030567;28;20048;-38
2020/12/24 04:29:12;;;;;;;0.75;0.70;;;11.20;82.30;;;;;;5026252;28;20473;-39
2020/12/24 04:31:42;;;;;;;1.25;0.95;;;11.20;82.20;;;;;;5031805;28;20045;-38
2020/12/24 04:34:09;;;;;;;1.27;0.70;;;11.20;82.20;;;;;;5031542;28;20413;-37
2020/12/24 04:36:34;;;;;;;1.13;0.57;;;11.20;82.30;;;;;;5028544;28;20045;-38
2020/12/24 04:39:00;;;;;;;1.17;0.70;;;11.10;82.20;;;;;;5024994;28;20504;-37
2020/12/24 04:41:26;;;;;;;0.43;0.43;;;11.20;82.20;;;;;;5030007;28;20528;-38
2020/12/24 04:43:52;;;;;;;1.27;0.70;;;11.20;82.20;;;;;;5030069;28;20053;-37
2020/12/24 04:46:25;;;;;;;1.35;0.50;;;11.20;82.30;;;;;;5030550;28;20042;-38
2020/12/24 04:48:51;;;;;;;0.73;0.60;;;11.20;82.30;;;;;;5030487;28;20052;-37
2020/12/24 04:51:18;;;;;;;0.68;0.57;;;11.10;82.20;;;;;;5031002;28;20046;-38
2020/12/24 04:53:45;;;;;;;0.85;0.85;;;11.10;82.20;;;;;;5030197;28;20106;-38
2020/12/24 04:56:11;;;;;;;0.82;0.63;;;11.20;82.30;;;;;;5031148;28;20496;-39
2020/12/24 04:58:40;;;;;;;0.93;0.70;;;11.10;82.20;;;;;;5028472;28;20038;-38
2020/12/24 05:01:09;;;;;;;0.47;0.47;;;11.10;82.20;;;;;;5033018;28;20478;-38
2020/12/24 05:03:35;;;;;;;0.40;0.40;;;11.20;82.30;;;;;;5026908;28;20042;-37
2020/12/24 05:06:00;;;;;;;1.17;0.60;;;11.20;82.20;;;;;;5030012;28;20087;-38
2020/12/24 05:08:26;;;;;;;0.65;0.65;;;11.10;82.20;;;;;;5030012;28;20099;-38
2020/12/24 05:11:05;;;;;;;0.40;0.40;;;11.20;82.30;;;;;;5030216;28;20037;-39
2020/12/24 05:13:31;;;;;;;0.65;0.65;;;11.20;82.20;;;;;;5031328;28;20475;-37
2020/12/24 05:16:09;;;;;;;1.27;0.50;;;11.10;82.20;;;;;;5029533;28;20045;-38
2020/12/24 05:18:35;;;;;;;1.05;0.77;;;11.20;82.30;;;;;;5027106;28;20057;-38
2020/12/24 05:21:01;;;;;;;1.02;0.55;;;11.20;82.30;;;;;;5029947;28;20046;-38
2020/12/24 05:23:28;;;;;;;0.95;0.70;;;11.10;82.20;;;;;;5033038;28;20053;-38
2020/12/24 05:25:53;;;;;;;0.60;0.50;;;11.10;82.20;;;;;;5030862;28;20410;-39
2020/12/24 05:28:23;;;;;;;0.77;0.57;;;11.20;82.30;;;;;;5029850;28;20042;-38
2020/12/24 05:30:49;;;;;;;0.52;0.50;;;11.10;82.20;;;;;;5028922;28;20052;-38
2020/12/24 05:33:31;;;;;;;0.50;0.50;;;11.10;82.20;;;;;;5032150;28;20052;-38
2020/12/24 05:36:19;;;;;;;1.00;0.80;;;11.20;82.30;;;;;;5029428;28;20041;-39
2020/12/24 05:38:46;;;;;;;0.57;0.52;;;11.10;82.20;;;;;;5027242;28;20501;-39
2020/12/24 05:41:38;;;;;;;0.50;0.50;;;11.10;82.20;;;;;;5030282;28;20053;-39
2020/12/24 05:44:06;;;;;;;0.70;0.60;;;11.10;82.20;;;;;;5028433;28;20152;-38
2020/12/24 05:46:43;;;;;;;1.17;0.77;;;11.10;82.20;;;;;;5028048;28;20072;-38
2020/12/24 05:49:18;;;;;;;0.85;0.57;;;11.10;82.20;;;;;;5026659;28;20144;-37
2020/12/24 05:51:53;;;;;;;1.08;0.60;;;11.10;82.30;;;;;;5025649;28;20046;-36
2020/12/24 05:54:20;;;;;;;0.50;0.50;;;11.10;82.30;;;;;;5031633;28;20052;-38
2020/12/24 05:56:46;;;;;;;0.50;0.50;;;11.10;82.30;;;;;;5029958;28;20513;-38
2020/12/24 05:59:24;;;;;;;0.43;0.40;;;11.10;82.30;;;;;;5029769;28;20045;-37
2020/12/24 06:02:10;;;;;;;0.50;0.50;;;11.10;82.30;;;;;;5026884;28;20050;-37
2020/12/24 06:04:44;;;;;;;0.57;0.50;;;11.10;82.20;;;;;;5025663;28;20057;-38
2020/12/24 06:07:13;;;;;;;0.70;0.60;;;11.10;82.30;;;;;;5028475;28;20041;-38
2020/12/24 06:09:40;;;;;;;0.80;0.80;;;11.10;82.30;;;;;;5026800;28;20103;-37
2020/12/24 06:12:19;;;;;;;0.50;0.50;;;11.10;82.30;;;;;;5028609;28;20124;-38
2020/12/24 06:14:49;;;;;;;0.68;0.60;;;11.10;82.30;;;;;;5026961;28;20065;-38
2020/12/24 06:17:18;;;;;;;0.77;0.60;;;11.10;82.30;;;;;;5029676;28;20053;-38
2020/12/24 06:19:44;;;;;;;1.23;0.70;;;11.10;82.90;;;;;;5027547;28;20046;-38
2020/12/24 06:22:10;;;;;;;0.60;0.52;;;11.10;82.30;;;;;;5029754;28;20069;-38
2020/12/24 06:24:50;;;;;;;0.68;0.50;;;11.10;82.30;;;;;;5026518;28;20111;-38
2020/12/24 06:27:31;;;;;;;0.65;0.57;;;11.10;82.30;;;;;;5028836;28;20064;-39
2020/12/24 06:30:04;;;;;;;1.70;0.77;;;11.10;82.30;;;;;;5028370;28;20038;-38
2020/12/24 06:32:34;;;;;;;0.60;0.60;;;11.10;82.30;;;;;;5025476;28;20050;-38
2020/12/24 06:35:00;;;;;;;2.00;0.85;;;11.10;83.00;;;;;;5029394;28;20046;-37
2020/12/24 06:37:26;;;;;;;0.75;0.57;;;11.10;82.30;;;;;;5026295;28;20051;-38
2020/12/24 06:39:53;;;;;;;2.25;0.60;;;11.10;82.30;;;;;;5028275;28;20054;-38
2020/12/24 06:42:43;;;;;;;1.48;0.73;;;11.10;83.00;;;;;;5027593;28;20487;-38
2020/12/24 06:45:19;;;;;;;1.00;0.40;;;11.10;82.40;;;;;;5027481;28;20045;-38
2020/12/24 06:48:10;;;;;;;0.73;0.73;;;11.10;82.50;;;;;;5029090;28;20042;-37
2020/12/24 06:50:40;;;;;;;1.02;0.57;;;11.10;82.40;;;;;;5022295;28;20414;-37
2020/12/24 06:53:19;;;;;;;0.70;0.70;;;11.10;82.50;;;;;;5027887;28;20049;-37
2020/12/24 06:56:05;;;;;;;0.60;0.60;;;11.10;82.50;;;;;;5027005;28;20096;-38
2020/12/24 06:58:40;;;;;;;0.80;0.70;;;11.10;82.50;;;;;;5027658;28;20132;-36
2020/12/24 07:01:06;;;;;;;;;;;11.10;82.50;;;;;;5025274;28;20046;-38
2020/12/24 07:03:35;;;;;;;;;;;11.10;82.40;;;;;;5027178;28;19924;-34
2020/12/24 07:06:01;;;;;;;0.40;0.40;;;11.00;82.40;;;;;;5023681;28;19927;-37
2020/12/24 07:08:32;;;;;;;0.75;0.60;;;11.00;82.40;;;;;;5024971;28;20045;-38
2020/12/24 07:11:00;;;;;;;0.55;0.55;;;11.10;82.50;;;;;;5029924;28;20107;-37
2020/12/24 07:13:38;;;;;;;0.40;0.40;;;11.10;82.50;;;;;;5027333;28;20409;-37
2020/12/24 07:16:12;;;;;;;1.17;0.60;;;11.00;82.40;;;;;;5023212;28;20053;-37
2020/12/24 07:18:39;;;;;;;0.50;0.50;;;11.10;82.50;;;;;;5028742;28;20049;-38
2020/12/24 07:21:07;;;;;;;0.40;0.40;;;11.10;82.50;;;;;;5028793;28;20038;-38
2020/12/24 07:23:35;;;;;;;0.70;0.70;;;11.10;82.50;;;;;;5026183;28;20060;-38
2020/12/24 07:26:07;;;;;;;0.75;0.60;;;11.10;82.50;;;;;;5024714;28;20102;-37
2020/12/24 07:28:35;;;;;;;0.52;0.52;;;11.00;82.50;;;;;;5025998;28;20406;-37
2020/12/24 07:31:03;;;;;;;0.68;0.65;;;11.10;82.60;;;;;;5025681;28;20437;-38
2020/12/24 07:33:29;;;;;;;0.68;0.68;;;11.10;82.60;;;;;;5030451;28;20520;-37
2020/12/24 07:35:56;;;;;;;0.70;0.70;;;11.10;82.60;;;;;;5027654;28;20041;-38
2020/12/24 07:38:25;;;;;;;0.57;0.57;;;11.10;82.60;;;;;;5023389;28;20053;-38
2020/12/24 07:40:51;;;;;;;0.70;0.70;;;11.10;82.60;;;;;;5027949;28;20099;-39
2020/12/24 07:43:17;;;;;;;0.90;0.68;;;11.10;82.70;;;;;;5027069;28;20081;-36
2020/12/24 07:45:44;;;;;;;0.47;0.47;;;11.10;82.60;;;;;;5025151;28;20049;-36
2020/12/24 07:48:13;;;;;;;0.75;0.60;;;11.10;82.60;;;;;;5028519;28;20041;-36
2020/12/24 07:50:39;;;;;;;1.23;0.65;;;11.10;82.60;;;;;;5027727;28;20042;-37
2020/12/24 07:53:07;;;;;;;0.60;0.60;;;11.10;82.60;;;;;;5014167;28;20182;-33
2020/12/24 07:55:33;;;;;;;0.70;0.68;;;11.10;82.60;;;;;;5026027;28;20087;-36
2020/12/24 07:58:06;;;;;;;0.73;0.60;;;11.10;82.50;;;;;;5023950;28;20050;-37
2020/12/24 08:00:38;;;;;;;0.80;0.60;;;11.10;82.60;;;;;;5026592;28;20148;-37
2020/12/24 08:03:04;;;;;;;0.55;0.43;;;11.10;82.50;;;;;;5030147;28;20049;-38
2020/12/24 08:05:30;;;;;;;0.63;0.63;;;11.10;82.60;;;;;;5030626;28;20041;-37
2020/12/24 08:07:55;;;;;;;0.80;0.80;;;11.10;82.50;;;;;;5031262;28;20405;-37
2020/12/24 08:10:21;;;;;;;0.70;0.60;;;11.10;82.50;;;;;;5028301;28;20050;-37
2020/12/24 08:12:46;;;;;;;2.08;0.77;;;11.10;82.50;;;;;;5031120;28;20049;-38
2020/12/24 08:15:17;;;;;;;7.15;1.67;;;11.10;82.50;;;;;;5033965;28;20049;-39
2020/12/24 08:17:57;;;;;;;3.30;1.70;;;11.10;82.10;;;;;;5036265;28;20563;-39
2020/12/24 08:20:47;;;;;;;2.85;0.93;;;10.90;81.90;;;;;;5025009;28;20050;-40
2020/12/24 08:23:19;;;;;;;6.28;1.27;;;10.90;82.10;;;;;;5016296;28;20046;-41
2020/12/24 08:25:52;;;;;;;2.15;1.20;;;10.90;82.10;;;;;;5016337;28;20061;-40
2020/12/24 08:28:19;;;;;;;2.45;1.15;;;10.90;82.10;;;;;;5016236;28;20126;-40
2020/12/24 08:30:46;;;;;;;3.80;1.67;;;10.90;82.10;;;;;;5017470;28;20076;-41
2020/12/24 08:33:13;;;;;;;4.43;1.10;;;10.90;82.10;;;;;;5016438;28;20050;-40
2020/12/24 08:35:39;;;;;;;3.63;1.02;;;11.00;82.20;;;;;;5016221;28;20482;-39
2020/12/24 08:38:12;;;;;;;3.35;1.00;;;10.90;82.80;;;;;;5016073;28;20056;-42
2020/12/24 08:40:38;;;;;;;2.83;1.00;;;11.00;82.20;;;;;;5017115;28;20092;-43
2020/12/24 08:43:06;;;;;;;4.85;1.55;;;11.00;82.20;;;;;;5029171;28;20486;-46
2020/12/24 08:45:32;;;;;;;1.30;0.70;;;10.90;81.80;;;;;;5029262;28;20049;-42
2020/12/24 08:47:58;;;;;;;3.80;0.80;;;10.80;82.00;;;;;;5035620;28;20084;-40
2020/12/24 08:50:33;;;;;;;4.85;1.50;;;10.80;82.00;;;;;;5035641;28;20077;-41
2020/12/24 08:52:59;;;;;;;2.83;0.95;;;10.80;82.00;;;;;;5015777;28;20104;-40
2020/12/24 08:55:29;;;;;;;4.85;0.85;;;10.80;82.00;;;;;;5015842;28;20057;-41
2020/12/24 08:57:55;;;;;;;4.30;1.20;;;10.80;82.00;;;;;;5016034;28;20072;-41
2020/12/24 09:00:22;;;;;;;5.75;1.23;;;10.80;82.10;;;;;;5015623;28;20045;-42
2020/12/24 09:02:48;;;;;;;2.67;1.27;;;10.90;82.10;;;;;;5027110;28;20049;-41
2020/12/24 09:05:20;;;;;;;3.17;0.98;;;10.90;82.10;;;;;;5032639;28;20462;-39
2020/12/24 09:07:46;;;;;;;3.92;1.05;;;10.90;82.10;;;;;;5024988;28;20046;-40
2020/12/24 09:10:14;;;;;;;2.92;0.82;;;10.90;82.10;;;;;;5031095;28;20521;-42
2020/12/24 09:12:42;;;;;;;3.70;1.25;;;10.90;82.10;;;;;;5029975;28;20478;-43
2020/12/24 09:15:12;;;;;;;2.20;0.85;;;10.80;82.00;;;;;;5031174;28;20402;-41
2020/12/24 09:17:55;;;;;;;2.28;0.88;;;10.90;82.10;;;;;;5028271;28;20107;-41
2020/12/24 09:20:22;;;;;;;2.75;0.93;;;10.90;82.10;;;;;;5032710;28;20045;-39
2020/12/24 09:22:50;;;;;;;3.05;1.10;;;10.90;82.20;;;;;;5029090;28;20045;-41
2020/12/24 09:25:39;;;;;;;2.85;1.00;;;10.90;82.10;;;;;;5029899;28;20568;-43
2020/12/24 09:28:17;;;;;;;2.97;0.90;;;10.90;82.10;;;;;;5028590;28;20045;-41
2020/12/24 09:30:42;;;;;;;3.88;1.27;;;10.90;82.20;;;;;;5027836;28;20053;-42
2020/12/24 09:33:08;;;;;;;1.63;0.80;;;10.90;82.20;;;;;;5030879;28;20041;-43
2020/12/24 09:35:34;;;;;;;1.50;0.88;;;10.90;82.20;;;;;;5028888;28;20046;-40
2020/12/24 09:38:00;;;;;;;3.63;0.80;;;10.90;82.20;;;;;;5031967;28;20486;-38
2020/12/24 09:40:25;;;;;;;2.03;0.70;;;10.90;82.20;;;;;;5030370;28;20521;-38
2020/12/24 09:42:51;;;;;;;2.63;0.88;;;10.90;82.20;;;;;;5031870;28;20104;-38
2020/12/24 09:45:17;;;;;;;2.58;0.90;;;10.90;82.20;;;;;;5033180;28;20049;-38
2020/12/24 09:47:46;;;;;;;2.90;0.70;;;10.90;81.80;;;;;;5024065;28;20057;-38
2020/12/24 09:50:13;;;;;;;2.20;1.10;;;10.80;82.60;;;;;;5014952;28;20077;-39
2020/12/24 09:52:39;;;;;;;3.75;0.98;;;10.80;82.00;;;;;;5014988;28;20104;-39
2020/12/24 09:55:05;;;;;;;3.90;0.93;;;10.80;82.10;;;;;;4997402;28;20045;-37
2020/12/24 09:57:35;;;;;;;3.00;0.90;;;10.80;82.00;;;;;;5015633;28;20537;-37
2020/12/24 10:00:03;;;;;;;2.42;0.90;;;10.80;82.10;;;;;;5014498;28;20498;-39
2020/12/24 10:02:29;;;;;;;3.83;1.63;;;10.80;82.10;;;;;;5014306;28;20494;-39
2020/12/24 10:04:55;;;;;;;2.45;1.00;;;10.80;81.40;;;;;;5014390;28;20050;-38
2020/12/24 10:07:24;;;;;;;3.38;1.10;;;10.80;81.80;;;;;;5014740;28;20055;-40
2020/12/24 10:09:51;;;;;;;5.55;1.27;;;10.80;81.90;;;;;;5025831;28;20564;-41
2020/12/24 10:12:24;;;;;;;3.65;1.10;;;10.80;81.90;;;;;;5033480;28;20060;-37
2020/12/24 10:14:50;;;;;;;1.88;0.90;;;10.80;81.90;;;;;;5028162;28;20076;-37
2020/12/24 10:17:16;;;;;;;4.93;1.27;;;10.80;81.90;;;;;;5013669;28;20046;-37
2020/12/24 10:19:43;;;;;;;3.25;0.90;;;10.80;81.90;;;;;;5014491;28;20052;-38
2020/12/24 10:22:10;;;;;;;3.25;0.90;;;10.80;81.90;;;;;;5018662;28;20042;-38
2020/12/24 10:24:38;;;;;;;2.47;1.00;;;10.80;81.90;;;;;;5027203;28;20064;-37
2020/12/24 10:27:04;;;;;;;2.05;0.90;;;10.80;81.90;;;;;;5034018;28;20045;-39
2020/12/24 10:29:30;;;;;;;3.63;0.80;;;10.80;82.00;;;;;;5033810;28;20053;-39
2020/12/24 10:31:56;;;;;;;1.92;0.80;;;10.80;82.00;;;;;;5033655;28;20041;-38
2020/12/24 10:34:21;;;;;;;3.97;1.00;;;10.80;82.00;;;;;;5030439;28;20455;-38
2020/12/24 10:36:47;;;;;;;3.78;0.90;;;10.80;82.00;;;;;;5014002;28;20052;-37
2020/12/24 10:39:13;;;;;;;2.38;0.93;;;10.80;82.00;;;;;;5014002;28;20100;-36
2020/12/24 10:41:40;;;;;;;2.88;0.80;;;10.80;82.00;;;;;;5014226;28;20537;-37
2020/12/24 10:44:07;;;;;;;2.53;0.73;;;10.80;82.00;;;;;;5013590;28;20054;-38
2020/12/24 10:46:34;;;;;;;3.28;1.17;;;10.90;82.00;;;;;;5015346;28;20046;-38
2020/12/24 10:49:00;;;;;;;2.88;0.68;;;10.80;82.00;;;;;;5013730;28;20053;-38
2020/12/24 10:51:26;;;;;;;2.72;0.90;;;10.80;82.00;;;;;;5013713;28;20049;-37
2020/12/24 10:53:52;;;;;;;2.78;0.82;;;10.80;82.00;;;;;;5013821;28;20053;-38
2020/12/24 10:56:18;;;;;;;1.95;0.73;;;10.90;82.10;;;;;;5015071;28;20046;-38
2020/12/24 10:58:45;;;;;;;1.95;0.75;;;10.90;82.10;;;;;;5013404;28;20093;-36
2020/12/24 11:01:12;;;;;;;2.38;0.77;;;10.90;82.70;;;;;;5013813;28;20046;-37
2020/12/24 11:03:38;;;;;;;1.45;0.70;;;10.90;82.00;;;;;;5013514;28;20069;-47
2020/12/24 11:06:08;;;;;;;1.23;0.73;;;10.90;82.00;;;;;;5014660;28;20107;-40
2020/12/24 11:08:34;;;;;;;2.75;0.80;;;10.90;82.00;;;;;;5013513;28;20100;-37
2020/12/24 11:11:01;;;;;;;2.83;0.95;;;10.90;82.00;;;;;;5013440;28;20049;-42
2020/12/24 11:13:27;;;;;;;1.75;0.80;;;10.90;82.10;;;;;;5013278;28;20054;-37
2020/12/24 11:15:53;;;;;;;3.78;0.88;;;10.90;82.00;;;;;;5013497;28;20061;-36
2020/12/24 11:18:19;;;;;;;1.85;0.73;;;10.90;82.00;;;;;;5011972;28;20406;-39
2020/12/24 11:20:45;;;;;;;2.88;0.85;;;10.90;82.00;;;;;;5032172;28;20068;-38
2020/12/24 11:23:11;;;;;;;2.08;0.90;;;10.90;82.00;;;;;;5033061;28;20045;-39
2020/12/24 11:25:37;;;;;;;2.30;0.98;;;10.90;82.00;;;;;;5032755;28;20061;-42
2020/12/24 11:28:03;;;;;;;2.13;0.88;;;10.90;82.00;;;;;;5021643;28;20486;-40
2020/12/24 11:30:29;;;;;;;1.83;0.95;;;10.90;82.00;;;;;;5031294;28;20053;-44
2020/12/24 11:32:55;;;;;;;1.67;0.80;;;10.90;82.00;;;;;;5032825;28;20048;-41
2020/12/24 11:35:21;;;;;;;1.38;0.75;;;10.90;82.00;;;;;;5032120;28;20659;-41
2020/12/24 11:37:47;;;;;;;1.75;0.65;;;10.90;82.00;;;;;;5033165;28;20045;-47
2020/12/24 11:40:13;;;;;;;1.52;0.47;;;10.90;82.00;;;;;;5032783;28;20474;-44
2020/12/24 11:42:39;;;;;;;1.13;0.70;;;10.90;81.90;;;;;;5033090;28;20095;-41
2020/12/24 11:45:05;;;;;;;0.65;0.55;;;10.90;81.90;;;;;;5032598;28;20056;-43
2020/12/24 11:47:33;;;;;;;1.77;0.80;;;11.00;82.00;;;;;;5032910;28;20136;-43
2020/12/24 11:49:59;;;;;;;1.48;1.02;;;10.90;81.90;;;;;;5032601;28;20049;-52
2020/12/24 11:52:25;;;;;;;0.77;0.50;;;10.90;81.90;;;;;;5033102;28;20049;-46
2020/12/24 11:54:50;;;;;;;3.22;0.90;;;11.00;82.00;;;;;;5032692;28;20049;-40
2020/12/24 11:57:16;;;;;;;1.38;0.60;;;10.90;81.90;;;;;;5020351;28;20152;-40
2020/12/24 11:59:41;;;;;;;2.17;0.63;;;10.90;81.90;;;;;;5032451;28;20518;-42
2020/12/24 12:02:07;;;;;;;1.15;0.50;;;10.90;81.80;;;;;;5033094;28;20490;-43
2020/12/24 12:04:35;;;;;;;0.80;0.60;;;10.90;81.90;;;;;;5033115;28;20583;-45
2020/12/24 12:07:01;;;;;;;0.88;0.65;;;10.90;81.90;;;;;;5041999;28;20048;-46
2020/12/24 12:09:27;;;;;;;2.53;0.70;;;11.00;81.90;;;;;;5041962;28;20493;-41
2020/12/24 12:11:52;;;;;;;0.65;0.43;;;11.00;81.90;;;;;;5028730;28;20628;-40
2020/12/24 12:14:18;;;;;;;1.27;0.70;;;11.00;81.90;;;;;;5046040;28;20444;-38
2020/12/24 12:16:44;;;;;;;1.05;0.45;;;11.00;81.90;;;;;;5051635;28;20049;-38
2020/12/24 12:19:09;;;;;;;3.63;0.60;;;11.00;81.80;;;;;;5043264;28;20136;-40
2020/12/24 12:21:36;;;;;;;1.77;0.50;;;11.00;81.80;;;;;;5030833;28;20052;-39
2020/12/24 12:24:02;;;;;;;1.13;0.60;;;11.00;81.90;;;;;;5031431;28;20057;-40
2020/12/24 12:26:29;;;;;;;1.15;0.60;;;11.00;81.90;;;;;;5031376;28;20054;-39
2020/12/24 12:28:54;;;;;;;1.50;0.70;;;11.00;81.80;;;;;;5031517;28;20502;-38
2020/12/24 12:31:24;;;;;;;1.30;0.65;;;11.00;81.80;;;;;;5031503;28;20048;-42
2020/12/24 12:33:52;;;;;;;1.38;0.50;;;11.00;81.80;;;;;;5031466;28;20532;-38
2020/12/24 12:36:18;;;;;;;1.75;0.70;;;11.00;81.90;;;;;;5031288;28;20045;-39
2020/12/24 12:38:46;;;;;;;1.70;0.60;;;11.00;81.80;;;;;;5031461;28;20053;-38
2020/12/24 12:41:13;;;;;;;1.08;0.60;;;11.00;81.80;;;;;;5031475;28;20494;-39
2020/12/24 12:43:39;;;;;;;1.27;0.70;;;11.00;81.80;;;;;;5045023;28;20048;-38
2020/12/24 12:46:05;;;;;;;2.08;0.80;;;11.00;81.80;;;;;;5051525;28;20044;-42
2020/12/24 12:48:31;;;;;;;1.95;0.80;;;11.00;81.80;;;;;;5054989;28;20068;-37
2020/12/24 12:50:57;;;;;;;1.33;0.60;;;11.00;81.80;;;;;;5054579;28;20045;-38